sensor_id;sensor_type;location;lat;lon;timestamp;pressure;altitude;pressure_sealevel;temperature;humidity
58991;BME280;44781;53.444;14.476;2023-03-22T06:57:50;100892.27;;;10.93;84.95
58991;BME280;44781;53.444;14.476;2023-03-22T08:44:58;100867.63;;;12.21;81.74
58991;BME280;44781;53.444;14.476;2023-03-22T09:31:45;100840.85;;;12.86;79.03
58991;BME280;44781;53.444;14.476;2023-03-22T09:34:45;100832.37;;;12.86;78.65
58991;BME280;44781;53.444;14.476;2023-03-22T09:37:21;100835.70;;;12.90;78.52
58991;BME280;44781;53.444;14.476;2023-03-22T09:45:26;100824.77;;;13.06;78.11
58991;BME280;44781;53.444;14.476;2023-03-22T09:54:27;100815.23;;;13.24;77.17
58991;BME280;44781;53.444;14.476;2023-03-22T09:57:17;100813.00;;;13.27;77.05
58991;BME280;44781;53.444;14.476;2023-03-22T13:24:21;100634.37;;;15.66;64.86
58991;BME280;44781;53.444;14.476;2023-03-22T14:06:53;100610.05;;;16.22;64.04
58991;BME280;44781;53.444;14.476;2023-03-22T14:20:50;100600.94;;;16.36;62.58
58991;BME280;44781;53.444;14.476;2023-03-22T14:35:22;100581.12;;;16.61;61.77
58991;BME280;44781;53.444;14.476;2023-03-22T14:38:30;100577.05;;;16.64;61.39
58991;BME280;44781;53.444;14.476;2023-03-22T14:42:13;100576.22;;;16.67;61.20
58991;BME280;44781;53.444;14.476;2023-03-22T14:45:12;100567.02;;;16.68;60.91
58991;BME280;44781;53.444;14.476;2023-03-22T14:48:36;100565.23;;;16.68;60.93
58991;BME280;44781;53.444;14.476;2023-03-22T14:55:23;100562.70;;;16.71;60.62
58991;BME280;44781;53.444;14.476;2023-03-22T14:58:49;100556.95;;;16.73;60.47
58991;BME280;44781;53.444;14.476;2023-03-22T15:02:21;100556.07;;;16.77;60.51
58991;BME280;44781;53.444;14.476;2023-03-22T15:05:16;100551.11;;;16.82;60.42
58991;BME280;44781;53.444;14.476;2023-03-22T15:23:55;100534.70;;;17.15;59.49
58991;BME280;44781;53.444;14.476;2023-03-22T15:30:42;100530.64;;;17.30;58.32
58991;BME280;44781;53.444;14.476;2023-03-22T15:34:39;100529.81;;;17.36;57.77
58991;BME280;44781;53.444;14.476;2023-03-22T15:55:57;100523.08;;;17.96;55.54
58991;BME280;44781;53.444;14.476;2023-03-22T15:58:32;100514.69;;;18.10;54.48
58991;BME280;44781;53.444;14.476;2023-03-22T16:12:26;100540.02;;;17.82;53.56
58991;BME280;44781;53.444;14.476;2023-03-22T16:15:01;100545.34;;;17.72;53.56
58991;BME280;44781;53.444;14.476;2023-03-22T16:17:28;100546.30;;;17.63;53.51
58991;BME280;44781;53.444;14.476;2023-03-22T16:19:55;100554.33;;;17.55;53.66
58991;BME280;44781;53.444;14.476;2023-03-22T16:22:25;100556.58;;;17.46;53.47
58991;BME280;44781;53.444;14.476;2023-03-22T16:24:52;100556.61;;;17.41;53.70
58991;BME280;44781;53.444;14.476;2023-03-22T16:27:21;100560.51;;;17.34;53.75
58991;BME280;44781;53.444;14.476;2023-03-22T16:29:53;100559.90;;;17.27;53.60
58991;BME280;44781;53.444;14.476;2023-03-22T16:32:25;100554.86;;;17.19;53.67
58991;BME280;44781;53.444;14.476;2023-03-22T16:35:23;100557.71;;;17.10;53.59
58991;BME280;44781;53.444;14.476;2023-03-22T16:38:32;100555.59;;;17.00;53.29
58991;BME280;44781;53.444;14.476;2023-03-22T16:45:08;100561.07;;;16.82;53.52
58991;BME280;44781;53.444;14.476;2023-03-22T16:48:48;100560.95;;;16.71;53.50
58991;BME280;44781;53.444;14.476;2023-03-22T16:52:22;100559.77;;;16.60;53.70
58991;BME280;44781;53.444;14.476;2023-03-22T16:59:38;100566.14;;;16.42;53.73
58991;BME280;44781;53.444;14.476;2023-03-22T17:03:00;100569.27;;;16.32;53.88
58991;BME280;44781;53.444;14.476;2023-03-22T17:05:55;100570.42;;;16.25;53.79
58991;BME280;44781;53.444;14.476;2023-03-22T17:08:26;100573.27;;;16.20;53.85
58991;BME280;44781;53.444;14.476;2023-03-22T17:10:59;100570.69;;;16.13;53.89
58991;BME280;44781;53.444;14.476;2023-03-22T17:13:30;100569.52;;;16.07;54.15
58991;BME280;44781;53.444;14.476;2023-03-22T17:15:59;100574.94;;;16.03;54.24
58991;BME280;44781;53.444;14.476;2023-03-22T17:18:31;100572.55;;;15.98;54.42
58991;BME280;44781;53.444;14.476;2023-03-22T17:21:04;100568.02;;;15.94;54.49
58991;BME280;44781;53.444;14.476;2023-03-22T17:24:31;100568.34;;;15.87;54.59
58991;BME280;44781;53.444;14.476;2023-03-22T17:27:02;100571.07;;;15.82;54.85
58991;BME280;44781;53.444;14.476;2023-03-22T17:29:29;100570.61;;;15.77;54.90
58991;BME280;44781;53.444;14.476;2023-03-22T17:31:59;100570.07;;;15.73;54.90
58991;BME280;44781;53.444;14.476;2023-03-22T17:34:33;100566.17;;;15.69;55.04
58991;BME280;44781;53.444;14.476;2023-03-22T17:37:06;100569.38;;;15.66;55.28
58991;BME280;44781;53.444;14.476;2023-03-22T17:39:59;100569.61;;;15.62;55.35
58991;BME280;44781;53.444;14.476;2023-03-22T17:42:49;100574.77;;;15.56;55.35
58991;BME280;44781;53.444;14.476;2023-03-22T17:45:31;100577.39;;;15.54;55.76
58991;BME280;44781;53.444;14.476;2023-03-22T17:48:05;100584.06;;;15.49;56.06
58991;BME280;44781;53.444;14.476;2023-03-22T17:50:34;100586.59;;;15.45;56.34
58991;BME280;44781;53.444;14.476;2023-03-22T17:53:04;100591.95;;;15.40;56.39
58991;BME280;44781;53.444;14.476;2023-03-22T17:55:38;100600.03;;;15.37;56.56
58991;BME280;44781;53.444;14.476;2023-03-22T17:58:07;100605.13;;;15.32;56.95
58991;BME280;44781;53.444;14.476;2023-03-22T18:00:35;100608.95;;;15.28;56.97
58991;BME280;44781;53.444;14.476;2023-03-22T18:03:07;100617.50;;;15.24;57.30
58991;BME280;44781;53.444;14.476;2023-03-22T18:05:35;100626.66;;;15.19;57.59
58991;BME280;44781;53.444;14.476;2023-03-22T18:08:02;100627.48;;;15.15;57.69
58991;BME280;44781;53.444;14.476;2023-03-22T18:10:30;100624.38;;;15.10;57.88
58991;BME280;44781;53.444;14.476;2023-03-22T18:12:58;100629.92;;;15.04;57.98
58991;BME280;44781;53.444;14.476;2023-03-22T18:15:30;100629.63;;;14.98;58.27
58991;BME280;44781;53.444;14.476;2023-03-22T18:17:58;100629.97;;;14.91;58.42
58991;BME280;44781;53.444;14.476;2023-03-22T18:20:26;100636.77;;;14.85;58.66
58991;BME280;44781;53.444;14.476;2023-03-22T18:22:53;100638.02;;;14.79;58.99
58991;BME280;44781;53.444;14.476;2023-03-22T18:25:21;100637.27;;;14.74;59.09
58991;BME280;44781;53.444;14.476;2023-03-22T18:27:49;100642.05;;;14.69;59.34
58991;BME280;44781;53.444;14.476;2023-03-22T18:30:21;100641.02;;;14.66;59.42
58991;BME280;44781;53.444;14.476;2023-03-22T18:32:51;100638.12;;;14.61;59.62
58991;BME280;44781;53.444;14.476;2023-03-22T18:35:56;100636.89;;;14.55;59.75
58991;BME280;44781;53.444;14.476;2023-03-22T18:38:48;100634.02;;;14.48;59.64
58991;BME280;44781;53.444;14.476;2023-03-22T18:41:21;100628.33;;;14.42;59.69
58991;BME280;44781;53.444;14.476;2023-03-22T18:45:07;100624.05;;;14.31;60.18
58991;BME280;44781;53.444;14.476;2023-03-22T18:48:16;100637.93;;;14.33;60.39
58991;BME280;44781;53.444;14.476;2023-03-22T18:51:15;100638.33;;;14.29;60.37
58991;BME280;44781;53.444;14.476;2023-03-22T18:53:50;100638.23;;;14.24;60.21
58991;BME280;44781;53.444;14.476;2023-03-22T18:56:31;100637.25;;;14.19;60.28
58991;BME280;44781;53.444;14.476;2023-03-22T18:59:00;100636.19;;;14.15;60.41
58991;BME280;44781;53.444;14.476;2023-03-22T19:01:32;100637.42;;;14.11;60.56
58991;BME280;44781;53.444;14.476;2023-03-22T19:04:11;100638.20;;;14.07;60.65
58991;BME280;44781;53.444;14.476;2023-03-22T19:07:21;100642.08;;;14.02;60.71
58991;BME280;44781;53.444;14.476;2023-03-22T19:10:11;100640.05;;;13.96;60.89
58991;BME280;44781;53.444;14.476;2023-03-22T19:12:45;100642.36;;;13.93;61.01
58991;BME280;44781;53.444;14.476;2023-03-22T19:15:19;100648.65;;;13.90;61.06
58991;BME280;44781;53.444;14.476;2023-03-22T19:18:09;100642.30;;;13.85;61.22
58991;BME280;44781;53.444;14.476;2023-03-22T19:21:02;100642.98;;;13.82;61.43
58991;BME280;44781;53.444;14.476;2023-03-22T19:23:34;100647.55;;;13.80;61.44
58991;BME280;44781;53.444;14.476;2023-03-22T19:26:13;100645.85;;;13.79;61.44
58991;BME280;44781;53.444;14.476;2023-03-22T19:29:00;100642.98;;;13.82;61.73
58991;BME280;44781;53.444;14.476;2023-03-22T19:31:28;100639.91;;;13.84;61.87
58991;BME280;44781;53.444;14.476;2023-03-22T19:33:58;100641.33;;;13.87;61.98
58991;BME280;44781;53.444;14.476;2023-03-22T19:36:33;100636.39;;;13.88;62.02
58991;BME280;44781;53.444;14.476;2023-03-22T19:39:13;100631.39;;;13.88;61.88
58991;BME280;44781;53.444;14.476;2023-03-22T19:42:32;100627.08;;;13.85;61.90
58991;BME280;44781;53.444;14.476;2023-03-22T19:45:31;100627.52;;;13.82;61.97
58991;BME280;44781;53.444;14.476;2023-03-22T19:48:04;100630.01;;;13.80;62.06
58991;BME280;44781;53.444;14.476;2023-03-22T19:50:46;100623.55;;;13.77;61.96
58991;BME280;44781;53.444;14.476;2023-03-22T19:53:15;100625.07;;;13.74;61.96
58991;BME280;44781;53.444;14.476;2023-03-22T19:55:49;100623.20;;;13.71;61.98
58991;BME280;44781;53.444;14.476;2023-03-22T19:58:31;100620.78;;;13.69;62.24
58991;BME280;44781;53.444;14.476;2023-03-22T20:02:16;100621.42;;;13.63;62.40
58991;BME280;44781;53.444;14.476;2023-03-22T20:04:44;100617.66;;;13.60;62.51
58991;BME280;44781;53.444;14.476;2023-03-22T20:07:16;100618.06;;;13.57;62.52
58991;BME280;44781;53.444;14.476;2023-03-22T20:10:05;100619.17;;;13.53;62.66
58991;BME280;44781;53.444;14.476;2023-03-22T20:12:36;100619.94;;;13.49;62.80
58991;BME280;44781;53.444;14.476;2023-03-22T20:15:32;100619.87;;;13.45;62.95
58991;BME280;44781;53.444;14.476;2023-03-22T20:18:03;100619.34;;;13.41;62.91
58991;BME280;44781;53.444;14.476;2023-03-22T20:20:31;100619.57;;;13.39;62.93
58991;BME280;44781;53.444;14.476;2023-03-22T20:22:59;100620.27;;;13.39;63.01
58991;BME280;44781;53.444;14.476;2023-03-22T20:25:32;100617.73;;;13.39;63.31
58991;BME280;44781;53.444;14.476;2023-03-22T20:28:00;100621.23;;;13.39;63.39
58991;BME280;44781;53.444;14.476;2023-03-22T20:30:35;100622.27;;;13.40;63.26
58991;BME280;44781;53.444;14.476;2023-03-22T20:33:31;100615.02;;;13.40;63.36
58991;BME280;44781;53.444;14.476;2023-03-22T20:35:59;100612.80;;;13.39;63.42
58991;BME280;44781;53.444;14.476;2023-03-22T21:17:34;100582.60;;;12.77;63.56
58991;BME280;44781;53.444;14.476;2023-03-22T21:20:57;100583.38;;;12.74;63.89
58991;BME280;44781;53.444;14.476;2023-03-22T21:24:59;100587.58;;;12.75;63.90
58991;BME280;44781;53.444;14.476;2023-03-22T22:16:58;100577.05;;;12.88;62.55
58991;BME280;44781;53.444;14.476;2023-03-22T23:12:54;100534.02;;;11.94;65.57
58991;BME280;44781;53.444;14.476;2023-03-22T23:15:23;100529.61;;;11.89;65.69
58991;BME280;44781;53.444;14.476;2023-03-22T23:18:03;100525.27;;;11.86;65.91
58991;BME280;44781;53.444;14.476;2023-03-22T23:37:32;100521.11;;;11.68;66.90
58991;BME280;44781;53.444;14.476;2023-03-22T23:41:03;100520.59;;;11.62;67.10
58991;BME280;44781;53.444;14.476;2023-03-22T23:43:47;100516.48;;;11.58;67.20
58991;BME280;44781;53.444;14.476;2023-03-22T23:50:08;100510.80;;;11.56;67.62
58991;BME280;44781;53.444;14.476;2023-03-22T23:53:23;100505.70;;;11.56;67.69
